sensor_id;sensor_type;location;lat;lon;timestamp;P1;durP1;ratioP1;P2;durP2;ratioP2
2538;SDS011;1280;49.760;9.664;2023-04-01T00:02:21;4.13;;;1.30;;
2538;SDS011;1280;49.760;9.664;2023-04-01T00:04:49;4.43;;;1.10;;
2538;SDS011;1280;49.760;9.664;2023-04-01T00:07:20;6.47;;;1.60;;
2538;SDS011;1280;49.760;9.664;2023-04-01T00:09:49;5.30;;;1.30;;
2538;SDS011;1280;49.760;9.664;2023-04-01T00:12:17;6.40;;;1.87;;
2538;SDS011;1280;49.760;9.664;2023-04-01T00:14:45;5.17;;;1.20;;
2538;SDS011;1280;49.760;9.664;2023-04-01T00:17:13;5.97;;;1.33;;
2538;SDS011;1280;49.760;9.664;2023-04-01T00:19:41;6.67;;;1.70;;
2538;SDS011;1280;49.760;9.664;2023-04-01T00:22:09;7.97;;;1.70;;
2538;SDS011;1280;49.760;9.664;2023-04-01T00:24:39;5.53;;;1.37;;
2538;SDS011;1280;49.760;9.664;2023-04-01T00:27:07;6.83;;;1.30;;
2538;SDS011;1280;49.760;9.664;2023-04-01T00:29:35;6.43;;;1.40;;
2538;SDS011;1280;49.760;9.664;2023-04-01T00:32:02;4.40;;;1.20;;
2538;SDS011;1280;49.760;9.664;2023-04-01T00:34:31;4.73;;;1.53;;
2538;SDS011;1280;49.760;9.664;2023-04-01T00:36:59;5.50;;;1.90;;
2538;SDS011;1280;49.760;9.664;2023-04-01T00:39:28;9.30;;;1.47;;
2538;SDS011;1280;49.760;9.664;2023-04-01T00:41:57;8.07;;;1.97;;
2538;SDS011;1280;49.760;9.664;2023-04-01T00:44:26;5.80;;;1.50;;
2538;SDS011;1280;49.760;9.664;2023-04-01T00:46:56;7.40;;;1.50;;
2538;SDS011;1280;49.760;9.664;2023-04-01T00:49:25;5.57;;;2.17;;
2538;SDS011;1280;49.760;9.664;2023-04-01T00:51:57;7.37;;;1.40;;
2538;SDS011;1280;49.760;9.664;2023-04-01T00:54:28;4.53;;;1.37;;
2538;SDS011;1280;49.760;9.664;2023-04-01T00:56:59;12.27;;;1.60;;
2538;SDS011;1280;49.760;9.664;2023-04-01T00:59:33;6.17;;;1.23;;
2538;SDS011;1280;49.760;9.664;2023-04-01T01:02:05;4.77;;;1.60;;
2538;SDS011;1280;49.760;9.664;2023-04-01T01:04:38;7.77;;;1.20;;
2538;SDS011;1280;49.760;9.664;2023-04-01T01:07:09;7.23;;;1.70;;
2538;SDS011;1280;49.760;9.664;2023-04-01T01:09:45;5.20;;;1.30;;
2538;SDS011;1280;49.760;9.664;2023-04-01T01:12:22;7.73;;;1.50;;
2538;SDS011;1280;49.760;9.664;2023-04-01T01:14:56;7.13;;;1.33;;
2538;SDS011;1280;49.760;9.664;2023-04-01T01:17:32;4.40;;;1.27;;
2538;SDS011;1280;49.760;9.664;2023-04-01T01:23:35;7.03;;;1.10;;
2538;SDS011;1280;49.760;9.664;2023-04-01T01:26:42;5.30;;;1.03;;
2538;SDS011;1280;49.760;9.664;2023-04-01T01:29:26;5.53;;;1.20;;
2538;SDS011;1280;49.760;9.664;2023-04-01T01:32:30;6.17;;;1.53;;
2538;SDS011;1280;49.760;9.664;2023-04-01T01:35:15;6.87;;;1.33;;
2538;SDS011;1280;49.760;9.664;2023-04-01T01:37:49;9.23;;;1.40;;
2538;SDS011;1280;49.760;9.664;2023-04-01T01:40:20;5.33;;;1.27;;
2538;SDS011;1280;49.760;9.664;2023-04-01T01:42:50;4.87;;;1.03;;
2538;SDS011;1280;49.760;9.664;2023-04-01T01:45:21;9.20;;;1.60;;
2538;SDS011;1280;49.760;9.664;2023-04-01T01:47:52;7.97;;;1.37;;
2538;SDS011;1280;49.760;9.664;2023-04-01T01:50:23;7.27;;;1.20;;
2538;SDS011;1280;49.760;9.664;2023-04-01T01:53:00;8.07;;;1.23;;
2538;SDS011;1280;49.760;9.664;2023-04-01T01:55:32;5.60;;;1.30;;
2538;SDS011;1280;49.760;9.664;2023-04-01T01:58:03;5.90;;;1.67;;
2538;SDS011;1280;49.760;9.664;2023-04-01T02:00:38;7.20;;;1.40;;
2538;SDS011;1280;49.760;9.664;2023-04-01T02:03:09;6.97;;;1.33;;
2538;SDS011;1280;49.760;9.664;2023-04-01T02:05:41;5.17;;;1.37;;
2538;SDS011;1280;49.760;9.664;2023-04-01T02:08:12;5.27;;;1.23;;
2538;SDS011;1280;49.760;9.664;2023-04-01T02:10:43;5.57;;;1.23;;
2538;SDS011;1280;49.760;9.664;2023-04-01T02:13:21;8.57;;;1.37;;
2538;SDS011;1280;49.760;9.664;2023-04-01T02:15:53;7.37;;;1.30;;
2538;SDS011;1280;49.760;9.664;2023-04-01T02:18:23;9.13;;;1.40;;
2538;SDS011;1280;49.760;9.664;2023-04-01T02:20:53;7.33;;;1.47;;
2538;SDS011;1280;49.760;9.664;2023-04-01T02:23:25;8.40;;;1.67;;
2538;SDS011;1280;49.760;9.664;2023-04-01T02:25:53;5.50;;;1.30;;
2538;SDS011;1280;49.760;9.664;2023-04-01T02:28:22;4.30;;;1.20;;
2538;SDS011;1280;49.760;9.664;2023-04-01T02:30:51;7.07;;;2.00;;
2538;SDS011;1280;49.760;9.664;2023-04-01T02:33:20;7.80;;;1.20;;
2538;SDS011;1280;49.760;9.664;2023-04-01T02:35:48;4.80;;;1.13;;
2538;SDS011;1280;49.760;9.664;2023-04-01T02:38:18;4.90;;;1.50;;
2538;SDS011;1280;49.760;9.664;2023-04-01T02:40:47;6.50;;;1.87;;
2538;SDS011;1280;49.760;9.664;2023-04-01T02:43:16;11.23;;;1.40;;
2538;SDS011;1280;49.760;9.664;2023-04-01T02:45:46;5.97;;;1.50;;
2538;SDS011;1280;49.760;9.664;2023-04-01T02:48:13;5.20;;;1.30;;
2538;SDS011;1280;49.760;9.664;2023-04-01T02:50:41;9.07;;;1.60;;
2538;SDS011;1280;49.760;9.664;2023-04-01T02:53:09;6.30;;;1.17;;
2538;SDS011;1280;49.760;9.664;2023-04-01T02:55:39;5.37;;;1.30;;
2538;SDS011;1280;49.760;9.664;2023-04-01T02:58:07;5.07;;;1.43;;
2538;SDS011;1280;49.760;9.664;2023-04-01T03:00:35;6.70;;;1.47;;
2538;SDS011;1280;49.760;9.664;2023-04-01T03:03:03;6.67;;;1.37;;
2538;SDS011;1280;49.760;9.664;2023-04-01T03:05:32;6.60;;;1.53;;
2538;SDS011;1280;49.760;9.664;2023-04-01T03:08:01;7.77;;;1.77;;
2538;SDS011;1280;49.760;9.664;2023-04-01T03:10:29;5.03;;;0.97;;
2538;SDS011;1280;49.760;9.664;2023-04-01T03:12:58;5.97;;;1.17;;
2538;SDS011;1280;49.760;9.664;2023-04-01T03:15:26;8.00;;;1.53;;
2538;SDS011;1280;49.760;9.664;2023-04-01T03:17:54;11.03;;;1.70;;
2538;SDS011;1280;49.760;9.664;2023-04-01T03:20:22;7.33;;;1.20;;
2538;SDS011;1280;49.760;9.664;2023-04-01T03:22:51;5.00;;;1.23;;
2538;SDS011;1280;49.760;9.664;2023-04-01T03:25:19;6.83;;;1.17;;
2538;SDS011;1280;49.760;9.664;2023-04-01T03:27:47;5.53;;;1.20;;
2538;SDS011;1280;49.760;9.664;2023-04-01T03:30:17;9.43;;;1.80;;
2538;SDS011;1280;49.760;9.664;2023-04-01T03:32:49;8.67;;;1.70;;
2538;SDS011;1280;49.760;9.664;2023-04-01T03:35:17;6.57;;;1.13;;
2538;SDS011;1280;49.760;9.664;2023-04-01T03:37:46;12.50;;;1.83;;
2538;SDS011;1280;49.760;9.664;2023-04-01T03:40:14;5.90;;;1.20;;
2538;SDS011;1280;49.760;9.664;2023-04-01T03:42:42;7.03;;;1.60;;
2538;SDS011;1280;49.760;9.664;2023-04-01T03:45:11;8.87;;;1.33;;
2538;SDS011;1280;49.760;9.664;2023-04-01T03:47:40;4.30;;;1.10;;
2538;SDS011;1280;49.760;9.664;2023-04-01T03:50:08;5.63;;;1.10;;
2538;SDS011;1280;49.760;9.664;2023-04-01T03:52:38;6.20;;;1.33;;
2538;SDS011;1280;49.760;9.664;2023-04-01T03:55:06;8.30;;;1.10;;
2538;SDS011;1280;49.760;9.664;2023-04-01T03:57:37;8.40;;;1.70;;
2538;SDS011;1280;49.760;9.664;2023-04-01T04:00:14;5.30;;;1.10;;
2538;SDS011;1280;49.760;9.664;2023-04-01T04:02:45;7.23;;;1.03;;
2538;SDS011;1280;49.760;9.664;2023-04-01T04:05:19;4.27;;;1.20;;
2538;SDS011;1280;49.760;9.664;2023-04-01T04:07:47;4.93;;;1.40;;
2538;SDS011;1280;49.760;9.664;2023-04-01T04:10:21;7.27;;;1.30;;
2538;SDS011;1280;49.760;9.664;2023-04-01T04:12:51;3.63;;;0.90;;
2538;SDS011;1280;49.760;9.664;2023-04-01T04:15:22;6.00;;;1.43;;
2538;SDS011;1280;49.760;9.664;2023-04-01T04:17:51;5.73;;;1.53;;
2538;SDS011;1280;49.760;9.664;2023-04-01T04:20:19;12.83;;;1.77;;
2538;SDS011;1280;49.760;9.664;2023-04-01T04:22:48;5.37;;;1.03;;
2538;SDS011;1280;49.760;9.664;2023-04-01T04:25:15;6.70;;;1.20;;
2538;SDS011;1280;49.760;9.664;2023-04-01T04:27:44;4.50;;;0.97;;
2538;SDS011;1280;49.760;9.664;2023-04-01T04:30:13;3.83;;;1.13;;
2538;SDS011;1280;49.760;9.664;2023-04-01T04:32:43;6.10;;;1.07;;
2538;SDS011;1280;49.760;9.664;2023-04-01T04:35:13;4.40;;;1.07;;
2538;SDS011;1280;49.760;9.664;2023-04-01T04:37:41;6.37;;;1.43;;
2538;SDS011;1280;49.760;9.664;2023-04-01T04:40:10;4.20;;;1.03;;
2538;SDS011;1280;49.760;9.664;2023-04-01T04:42:38;7.30;;;1.23;;
2538;SDS011;1280;49.760;9.664;2023-04-01T04:45:10;7.13;;;1.30;;
2538;SDS011;1280;49.760;9.664;2023-04-01T04:47:45;3.47;;;1.20;;
2538;SDS011;1280;49.760;9.664;2023-04-01T04:50:15;5.63;;;1.07;;
2538;SDS011;1280;49.760;9.664;2023-04-01T04:52:43;3.93;;;1.20;;
2538;SDS011;1280;49.760;9.664;2023-04-01T04:55:11;4.33;;;1.50;;
2538;SDS011;1280;49.760;9.664;2023-04-01T04:57:41;5.07;;;1.10;;
2538;SDS011;1280;49.760;9.664;2023-04-01T05:00:10;7.60;;;1.50;;
2538;SDS011;1280;49.760;9.664;2023-04-01T05:02:59;3.47;;;1.00;;
2538;SDS011;1280;49.760;9.664;2023-04-01T05:05:29;5.53;;;1.20;;
2538;SDS011;1280;49.760;9.664;2023-04-01T05:07:57;4.43;;;1.13;;
2538;SDS011;1280;49.760;9.664;2023-04-01T05:10:25;3.47;;;1.20;;
2538;SDS011;1280;49.760;9.664;2023-04-01T05:12:53;4.70;;;0.93;;
2538;SDS011;1280;49.760;9.664;2023-04-01T05:15:22;4.77;;;1.60;;
2538;SDS011;1280;49.760;9.664;2023-04-01T05:17:50;5.47;;;1.10;;
2538;SDS011;1280;49.760;9.664;2023-04-01T05:20:18;3.83;;;1.10;;
2538;SDS011;1280;49.760;9.664;2023-04-01T05:22:47;5.33;;;1.30;;
2538;SDS011;1280;49.760;9.664;2023-04-01T05:25:16;5.43;;;1.20;;
2538;SDS011;1280;49.760;9.664;2023-04-01T05:27:44;3.67;;;0.97;;
2538;SDS011;1280;49.760;9.664;2023-04-01T05:30:12;3.20;;;1.00;;
2538;SDS011;1280;49.760;9.664;2023-04-01T05:32:52;8.53;;;1.30;;
2538;SDS011;1280;49.760;9.664;2023-04-01T05:35:20;5.77;;;1.43;;
2538;SDS011;1280;49.760;9.664;2023-04-01T05:37:50;4.60;;;0.93;;
2538;SDS011;1280;49.760;9.664;2023-04-01T05:40:19;6.73;;;1.07;;
2538;SDS011;1280;49.760;9.664;2023-04-01T05:42:48;5.33;;;0.80;;
2538;SDS011;1280;49.760;9.664;2023-04-01T05:45:17;4.80;;;0.90;;
2538;SDS011;1280;49.760;9.664;2023-04-01T05:48:05;6.13;;;1.20;;
2538;SDS011;1280;49.760;9.664;2023-04-01T05:50:39;5.50;;;1.40;;
2538;SDS011;1280;49.760;9.664;2023-04-01T05:53:10;4.10;;;0.90;;
2538;SDS011;1280;49.760;9.664;2023-04-01T05:55:41;4.20;;;0.80;;
2538;SDS011;1280;49.760;9.664;2023-04-01T05:58:13;3.57;;;0.80;;
2538;SDS011;1280;49.760;9.664;2023-04-01T06:00:44;4.47;;;1.10;;
2538;SDS011;1280;49.760;9.664;2023-04-01T06:03:15;4.53;;;0.87;;
2538;SDS011;1280;49.760;9.664;2023-04-01T06:05:43;4.03;;;1.10;;
2538;SDS011;1280;49.760;9.664;2023-04-01T06:08:15;6.60;;;1.10;;
2538;SDS011;1280;49.760;9.664;2023-04-01T06:10:59;5.47;;;1.30;;
2538;SDS011;1280;49.760;9.664;2023-04-01T06:13:42;4.13;;;1.27;;
2538;SDS011;1280;49.760;9.664;2023-04-01T06:16:30;4.33;;;1.10;;
2538;SDS011;1280;49.760;9.664;2023-04-01T06:28:26;4.27;;;1.30;;
2538;SDS011;1280;49.760;9.664;2023-04-01T06:31:10;6.33;;;1.20;;
2538;SDS011;1280;49.760;9.664;2023-04-01T06:33:52;4.70;;;1.10;;
2538;SDS011;1280;49.760;9.664;2023-04-01T06:36:39;6.17;;;1.17;;
2538;SDS011;1280;49.760;9.664;2023-04-01T06:39:39;5.30;;;1.20;;
2538;SDS011;1280;49.760;9.664;2023-04-01T06:42:33;7.37;;;1.07;;
2538;SDS011;1280;49.760;9.664;2023-04-01T06:45:34;4.60;;;1.37;;
2538;SDS011;1280;49.760;9.664;2023-04-01T06:48:37;5.40;;;1.20;;
2538;SDS011;1280;49.760;9.664;2023-04-01T06:51:39;5.13;;;1.10;;
2538;SDS011;1280;49.760;9.664;2023-04-01T06:54:32;4.63;;;0.97;;
2538;SDS011;1280;49.760;9.664;2023-04-01T06:57:41;5.50;;;1.20;;
2538;SDS011;1280;49.760;9.664;2023-04-01T07:00:15;7.90;;;1.17;;
2538;SDS011;1280;49.760;9.664;2023-04-01T07:02:53;4.43;;;0.90;;
2538;SDS011;1280;49.760;9.664;2023-04-01T07:05:24;4.23;;;1.00;;
2538;SDS011;1280;49.760;9.664;2023-04-01T07:07:59;5.13;;;1.03;;
2538;SDS011;1280;49.760;9.664;2023-04-01T07:10:33;4.70;;;1.43;;
2538;SDS011;1280;49.760;9.664;2023-04-01T07:13:30;5.40;;;1.03;;
2538;SDS011;1280;49.760;9.664;2023-04-01T07:16:12;4.57;;;0.93;;
2538;SDS011;1280;49.760;9.664;2023-04-01T07:18:44;6.10;;;1.17;;
2538;SDS011;1280;49.760;9.664;2023-04-01T07:21:23;3.73;;;1.10;;
2538;SDS011;1280;49.760;9.664;2023-04-01T07:24:01;4.97;;;1.00;;
2538;SDS011;1280;49.760;9.664;2023-04-01T07:26:42;4.60;;;1.00;;
2538;SDS011;1280;49.760;9.664;2023-04-01T07:29:19;6.13;;;1.10;;
2538;SDS011;1280;49.760;9.664;2023-04-01T07:34:50;4.80;;;1.40;;
2538;SDS011;1280;49.760;9.664;2023-04-01T07:37:28;4.93;;;1.00;;
2538;SDS011;1280;49.760;9.664;2023-04-01T07:40:05;11.03;;;1.67;;
2538;SDS011;1280;49.760;9.664;2023-04-01T07:42:44;4.90;;;1.20;;
2538;SDS011;1280;49.760;9.664;2023-04-01T07:45:27;5.53;;;1.10;;
2538;SDS011;1280;49.760;9.664;2023-04-01T07:48:06;7.53;;;1.40;;
2538;SDS011;1280;49.760;9.664;2023-04-01T07:50:44;4.73;;;1.27;;
2538;SDS011;1280;49.760;9.664;2023-04-01T07:53:20;4.70;;;1.30;;
2538;SDS011;1280;49.760;9.664;2023-04-01T07:55:58;5.23;;;1.30;;
2538;SDS011;1280;49.760;9.664;2023-04-01T07:58:36;3.67;;;0.90;;
2538;SDS011;1280;49.760;9.664;2023-04-01T08:01:19;4.40;;;1.10;;
2538;SDS011;1280;49.760;9.664;2023-04-01T08:04:01;6.60;;;1.27;;
2538;SDS011;1280;49.760;9.664;2023-04-01T08:06:49;4.03;;;1.17;;
2538;SDS011;1280;49.760;9.664;2023-04-01T08:09:26;4.00;;;0.80;;
2538;SDS011;1280;49.760;9.664;2023-04-01T08:12:24;4.57;;;0.93;;
2538;SDS011;1280;49.760;9.664;2023-04-01T08:15:22;7.17;;;0.97;;
2538;SDS011;1280;49.760;9.664;2023-04-01T08:18:11;4.03;;;0.83;;
2538;SDS011;1280;49.760;9.664;2023-04-01T08:20:50;3.83;;;0.93;;
2538;SDS011;1280;49.760;9.664;2023-04-01T08:23:22;3.97;;;0.80;;
2538;SDS011;1280;49.760;9.664;2023-04-01T08:25:54;4.20;;;1.00;;
2538;SDS011;1280;49.760;9.664;2023-04-01T08:28:32;3.17;;;0.70;;
2538;SDS011;1280;49.760;9.664;2023-04-01T08:31:06;4.07;;;1.07;;
2538;SDS011;1280;49.760;9.664;2023-04-01T08:33:43;3.47;;;0.80;;
2538;SDS011;1280;49.760;9.664;2023-04-01T08:36:15;5.10;;;1.30;;
2538;SDS011;1280;49.760;9.664;2023-04-01T08:38:54;3.83;;;0.70;;
2538;SDS011;1280;49.760;9.664;2023-04-01T08:41:33;5.07;;;1.57;;
2538;SDS011;1280;49.760;9.664;2023-04-01T08:44:46;3.67;;;0.60;;
2538;SDS011;1280;49.760;9.664;2023-04-01T08:48:04;4.10;;;0.80;;
2538;SDS011;1280;49.760;9.664;2023-04-01T08:54:07;3.10;;;0.90;;
2538;SDS011;1280;49.760;9.664;2023-04-01T08:56:50;3.73;;;0.97;;
2538;SDS011;1280;49.760;9.664;2023-04-01T08:59:38;3.30;;;1.00;;
2538;SDS011;1280;49.760;9.664;2023-04-01T09:15:30;4.23;;;1.03;;
2538;SDS011;1280;49.760;9.664;2023-04-01T09:18:48;3.90;;;0.80;;
2538;SDS011;1280;49.760;9.664;2023-04-01T09:22:12;3.00;;;0.73;;
2538;SDS011;1280;49.760;9.664;2023-04-01T09:25:31;3.70;;;0.90;;
2538;SDS011;1280;49.760;9.664;2023-04-01T09:28:25;3.47;;;0.67;;
2538;SDS011;1280;49.760;9.664;2023-04-01T09:34:45;3.67;;;0.70;;
2538;SDS011;1280;49.760;9.664;2023-04-01T09:37:41;4.17;;;0.83;;
2538;SDS011;1280;49.760;9.664;2023-04-01T09:40:54;2.77;;;0.77;;
2538;SDS011;1280;49.760;9.664;2023-04-01T09:43:46;2.80;;;0.70;;
2538;SDS011;1280;49.760;9.664;2023-04-01T09:46:56;3.30;;;1.10;;
2538;SDS011;1280;49.760;9.664;2023-04-01T09:49:59;3.50;;;0.87;;
2538;SDS011;1280;49.760;9.664;2023-04-01T09:52:52;2.80;;;0.80;;
2538;SDS011;1280;49.760;9.664;2023-04-01T10:05:41;3.00;;;0.90;;
2538;SDS011;1280;49.760;9.664;2023-04-01T10:15:35;3.10;;;0.80;;
2538;SDS011;1280;49.760;9.664;2023-04-01T10:18:42;3.57;;;0.60;;
2538;SDS011;1280;49.760;9.664;2023-04-01T10:22:07;4.00;;;0.77;;
2538;SDS011;1280;49.760;9.664;2023-04-01T10:28:27;3.10;;;0.77;;
2538;SDS011;1280;49.760;9.664;2023-04-01T10:35:05;2.80;;;0.60;;
2538;SDS011;1280;49.760;9.664;2023-04-01T10:41:44;2.70;;;0.60;;
2538;SDS011;1280;49.760;9.664;2023-04-01T10:45:15;3.27;;;0.70;;
2538;SDS011;1280;49.760;9.664;2023-04-01T10:51:20;2.70;;;0.60;;
2538;SDS011;1280;49.760;9.664;2023-04-01T10:54:49;2.60;;;0.50;;
2538;SDS011;1280;49.760;9.664;2023-04-01T11:18:39;2.93;;;0.50;;
2538;SDS011;1280;49.760;9.664;2023-04-01T11:21:56;2.53;;;0.60;;
2538;SDS011;1280;49.760;9.664;2023-04-01T11:28:33;6.00;;;0.70;;
2538;SDS011;1280;49.760;9.664;2023-04-01T11:31:24;2.80;;;0.63;;
2538;SDS011;1280;49.760;9.664;2023-04-01T11:34:13;2.80;;;0.60;;
2538;SDS011;1280;49.760;9.664;2023-04-01T11:37:03;2.60;;;0.53;;
2538;SDS011;1280;49.760;9.664;2023-04-01T11:40:03;3.50;;;0.70;;
2538;SDS011;1280;49.760;9.664;2023-04-01T11:43:07;3.40;;;0.80;;
2538;SDS011;1280;49.760;9.664;2023-04-01T11:46:21;3.63;;;0.60;;
2538;SDS011;1280;49.760;9.664;2023-04-01T11:49:01;2.60;;;0.50;;
2538;SDS011;1280;49.760;9.664;2023-04-01T11:52:03;3.10;;;0.63;;
2538;SDS011;1280;49.760;9.664;2023-04-01T11:58:08;5.00;;;0.60;;
2538;SDS011;1280;49.760;9.664;2023-04-01T12:04:05;2.90;;;0.70;;
2538;SDS011;1280;49.760;9.664;2023-04-01T12:10:15;3.43;;;0.60;;
2538;SDS011;1280;49.760;9.664;2023-04-01T12:12:53;4.50;;;0.80;;
2538;SDS011;1280;49.760;9.664;2023-04-01T12:15:45;2.90;;;0.60;;
2538;SDS011;1280;49.760;9.664;2023-04-01T12:18:35;2.87;;;0.77;;
2538;SDS011;1280;49.760;9.664;2023-04-01T12:21:11;3.20;;;0.90;;
2538;SDS011;1280;49.760;9.664;2023-04-01T12:24:17;4.87;;;0.77;;
2538;SDS011;1280;49.760;9.664;2023-04-01T12:27:20;3.23;;;0.60;;
2538;SDS011;1280;49.760;9.664;2023-04-01T12:30:32;2.80;;;0.50;;
2538;SDS011;1280;49.760;9.664;2023-04-01T12:33:47;4.20;;;0.70;;
2538;SDS011;1280;49.760;9.664;2023-04-01T12:36:35;2.60;;;0.40;;
2538;SDS011;1280;49.760;9.664;2023-04-01T12:42:44;2.60;;;0.50;;
2538;SDS011;1280;49.760;9.664;2023-04-01T12:45:42;2.70;;;0.50;;
2538;SDS011;1280;49.760;9.664;2023-04-01T12:48:57;2.60;;;0.47;;
2538;SDS011;1280;49.760;9.664;2023-04-01T12:51:58;2.60;;;0.40;;
2538;SDS011;1280;49.760;9.664;2023-04-01T13:01:23;3.07;;;0.63;;
2538;SDS011;1280;49.760;9.664;2023-04-01T13:04:30;2.80;;;0.53;;
2538;SDS011;1280;49.760;9.664;2023-04-01T13:11:14;4.40;;;0.70;;
2538;SDS011;1280;49.760;9.664;2023-04-01T13:17:15;2.60;;;0.70;;
2538;SDS011;1280;49.760;9.664;2023-04-01T13:19:58;2.80;;;0.60;;
2538;SDS011;1280;49.760;9.664;2023-04-01T13:22:44;3.43;;;0.60;;
2538;SDS011;1280;49.760;9.664;2023-04-01T13:25:24;3.07;;;0.60;;
2538;SDS011;1280;49.760;9.664;2023-04-01T13:28:06;2.90;;;0.60;;
2538;SDS011;1280;49.760;9.664;2023-04-01T13:30:52;2.93;;;0.50;;
2538;SDS011;1280;49.760;9.664;2023-04-01T13:33:34;2.90;;;0.60;;
2538;SDS011;1280;49.760;9.664;2023-04-01T13:36:23;2.80;;;0.60;;
2538;SDS011;1280;49.760;9.664;2023-04-01T13:39:29;2.53;;;0.50;;
2538;SDS011;1280;49.760;9.664;2023-04-01T13:42:13;2.80;;;0.60;;
2538;SDS011;1280;49.760;9.664;2023-04-01T13:45:01;3.20;;;0.60;;
2538;SDS011;1280;49.760;9.664;2023-04-01T13:47:50;2.60;;;0.40;;
2538;SDS011;1280;49.760;9.664;2023-04-01T13:50:37;2.93;;;0.60;;
2538;SDS011;1280;49.760;9.664;2023-04-01T13:53:51;2.80;;;0.60;;
2538;SDS011;1280;49.760;9.664;2023-04-01T13:56:49;2.57;;;0.57;;
2538;SDS011;1280;49.760;9.664;2023-04-01T14:02:36;3.00;;;0.70;;
2538;SDS011;1280;49.760;9.664;2023-04-01T14:05:44;2.70;;;0.50;;
2538;SDS011;1280;49.760;9.664;2023-04-01T14:08:41;2.60;;;0.50;;
2538;SDS011;1280;49.760;9.664;2023-04-01T14:11:27;3.83;;;0.70;;
2538;SDS011;1280;49.760;9.664;2023-04-01T14:14:18;2.73;;;0.67;;
2538;SDS011;1280;49.760;9.664;2023-04-01T14:17:13;2.60;;;0.60;;
2538;SDS011;1280;49.760;9.664;2023-04-01T14:22:54;2.90;;;0.60;;
2538;SDS011;1280;49.760;9.664;2023-04-01T14:25:56;2.83;;;0.70;;
2538;SDS011;1280;49.760;9.664;2023-04-01T14:29:08;2.60;;;0.57;;
2538;SDS011;1280;49.760;9.664;2023-04-01T14:31:52;3.30;;;0.53;;
2538;SDS011;1280;49.760;9.664;2023-04-01T14:34:52;4.00;;;0.60;;
2538;SDS011;1280;49.760;9.664;2023-04-01T14:41:00;3.20;;;0.90;;
2538;SDS011;1280;49.760;9.664;2023-04-01T14:50:05;2.60;;;0.60;;
2538;SDS011;1280;49.760;9.664;2023-04-01T14:52:46;2.50;;;0.50;;
2538;SDS011;1280;49.760;9.664;2023-04-01T14:55:32;4.10;;;0.73;;
2538;SDS011;1280;49.760;9.664;2023-04-01T14:58:17;3.40;;;0.80;;
2538;SDS011;1280;49.760;9.664;2023-04-01T15:00:59;2.60;;;0.50;;
2538;SDS011;1280;49.760;9.664;2023-04-01T15:03:47;2.70;;;0.50;;
2538;SDS011;1280;49.760;9.664;2023-04-01T15:06:39;5.70;;;0.83;;
2538;SDS011;1280;49.760;9.664;2023-04-01T15:09:28;2.60;;;0.60;;
2538;SDS011;1280;49.760;9.664;2023-04-01T15:12:26;2.70;;;0.50;;
2538;SDS011;1280;49.760;9.664;2023-04-01T15:15:10;3.73;;;0.60;;
2538;SDS011;1280;49.760;9.664;2023-04-01T15:18:05;2.60;;;0.53;;
2538;SDS011;1280;49.760;9.664;2023-04-01T15:21:01;3.57;;;0.67;;
2538;SDS011;1280;49.760;9.664;2023-04-01T15:23:56;2.90;;;0.80;;
2538;SDS011;1280;49.760;9.664;2023-04-01T15:26:38;2.70;;;0.63;;
2538;SDS011;1280;49.760;9.664;2023-04-01T15:29:38;2.90;;;0.63;;
2538;SDS011;1280;49.760;9.664;2023-04-01T15:32:37;2.90;;;0.70;;
2538;SDS011;1280;49.760;9.664;2023-04-01T15:35:27;2.60;;;0.70;;
2538;SDS011;1280;49.760;9.664;2023-04-01T15:38:19;2.90;;;0.77;;
2538;SDS011;1280;49.760;9.664;2023-04-01T15:41:02;3.27;;;0.67;;
2538;SDS011;1280;49.760;9.664;2023-04-01T15:43:43;2.80;;;0.70;;
2538;SDS011;1280;49.760;9.664;2023-04-01T15:46:26;3.67;;;0.73;;
2538;SDS011;1280;49.760;9.664;2023-04-01T15:49:28;2.73;;;0.67;;
2538;SDS011;1280;49.760;9.664;2023-04-01T15:52:13;2.60;;;0.70;;
2538;SDS011;1280;49.760;9.664;2023-04-01T15:55:09;3.13;;;0.90;;
2538;SDS011;1280;49.760;9.664;2023-04-01T15:57:55;2.70;;;0.73;;
2538;SDS011;1280;49.760;9.664;2023-04-01T16:00:47;3.13;;;0.70;;
2538;SDS011;1280;49.760;9.664;2023-04-01T16:03:39;3.00;;;0.70;;
2538;SDS011;1280;49.760;9.664;2023-04-01T16:06:34;2.63;;;0.67;;
2538;SDS011;1280;49.760;9.664;2023-04-01T16:09:34;3.60;;;0.80;;
2538;SDS011;1280;49.760;9.664;2023-04-01T16:12:37;3.40;;;0.73;;
2538;SDS011;1280;49.760;9.664;2023-04-01T16:15:23;2.80;;;0.70;;
2538;SDS011;1280;49.760;9.664;2023-04-01T16:18:11;3.17;;;0.70;;
2538;SDS011;1280;49.760;9.664;2023-04-01T16:20:57;2.70;;;0.70;;
2538;SDS011;1280;49.760;9.664;2023-04-01T16:23:39;3.67;;;0.90;;
2538;SDS011;1280;49.760;9.664;2023-04-01T16:26:22;2.97;;;0.70;;
2538;SDS011;1280;49.760;9.664;2023-04-01T16:29:06;2.83;;;0.60;;
2538;SDS011;1280;49.760;9.664;2023-04-01T16:31:55;2.60;;;0.53;;
2538;SDS011;1280;49.760;9.664;2023-04-01T16:34:55;4.83;;;0.80;;
2538;SDS011;1280;49.760;9.664;2023-04-01T16:37:59;5.57;;;0.70;;
2538;SDS011;1280;49.760;9.664;2023-04-01T16:40:39;3.20;;;0.70;;
2538;SDS011;1280;49.760;9.664;2023-04-01T16:43:17;3.83;;;0.70;;
2538;SDS011;1280;49.760;9.664;2023-04-01T16:46:00;3.00;;;0.73;;
2538;SDS011;1280;49.760;9.664;2023-04-01T16:48:58;3.20;;;0.63;;
2538;SDS011;1280;49.760;9.664;2023-04-01T16:51:45;2.70;;;0.70;;
2538;SDS011;1280;49.760;9.664;2023-04-01T16:54:30;3.00;;;0.70;;
2538;SDS011;1280;49.760;9.664;2023-04-01T16:57:15;3.63;;;1.00;;
2538;SDS011;1280;49.760;9.664;2023-04-01T16:59:54;3.10;;;0.80;;
2538;SDS011;1280;49.760;9.664;2023-04-01T17:02:36;2.83;;;0.83;;
2538;SDS011;1280;49.760;9.664;2023-04-01T17:05:19;3.47;;;0.73;;
2538;SDS011;1280;49.760;9.664;2023-04-01T17:08:05;3.20;;;0.87;;
2538;SDS011;1280;49.760;9.664;2023-04-01T17:10:50;3.20;;;0.80;;
2538;SDS011;1280;49.760;9.664;2023-04-01T17:13:42;2.90;;;0.80;;
2538;SDS011;1280;49.760;9.664;2023-04-01T17:19:45;4.70;;;0.80;;
2538;SDS011;1280;49.760;9.664;2023-04-01T17:22:37;3.07;;;0.93;;
2538;SDS011;1280;49.760;9.664;2023-04-01T17:25:23;2.70;;;0.80;;
2538;SDS011;1280;49.760;9.664;2023-04-01T17:28:10;3.47;;;1.10;;
2538;SDS011;1280;49.760;9.664;2023-04-01T17:30:58;3.07;;;0.80;;
2538;SDS011;1280;49.760;9.664;2023-04-01T17:33:55;3.07;;;0.67;;
2538;SDS011;1280;49.760;9.664;2023-04-01T17:37:06;3.13;;;0.90;;
2538;SDS011;1280;49.760;9.664;2023-04-01T17:40:00;3.00;;;0.77;;
2538;SDS011;1280;49.760;9.664;2023-04-01T17:42:52;3.00;;;0.80;;
2538;SDS011;1280;49.760;9.664;2023-04-01T17:45:45;2.90;;;0.70;;
2538;SDS011;1280;49.760;9.664;2023-04-01T17:48:31;2.70;;;0.60;;
2538;SDS011;1280;49.760;9.664;2023-04-01T17:51:20;3.07;;;0.70;;
2538;SDS011;1280;49.760;9.664;2023-04-01T17:57:10;2.67;;;0.63;;
2538;SDS011;1280;49.760;9.664;2023-04-01T18:00:00;3.30;;;1.00;;
2538;SDS011;1280;49.760;9.664;2023-04-01T18:02:52;2.90;;;0.60;;
2538;SDS011;1280;49.760;9.664;2023-04-01T18:08:41;2.53;;;0.60;;
2538;SDS011;1280;49.760;9.664;2023-04-01T18:11:24;2.70;;;0.80;;
2538;SDS011;1280;49.760;9.664;2023-04-01T18:14:28;3.43;;;0.90;;
2538;SDS011;1280;49.760;9.664;2023-04-01T18:17:44;2.70;;;0.80;;
2538;SDS011;1280;49.760;9.664;2023-04-01T18:20:36;3.30;;;0.90;;
2538;SDS011;1280;49.760;9.664;2023-04-01T18:23:19;3.73;;;0.90;;
2538;SDS011;1280;49.760;9.664;2023-04-01T18:26:04;4.03;;;1.10;;
2538;SDS011;1280;49.760;9.664;2023-04-01T18:28:49;3.00;;;0.77;;
2538;SDS011;1280;49.760;9.664;2023-04-01T18:31:34;2.80;;;0.80;;
2538;SDS011;1280;49.760;9.664;2023-04-01T18:34:28;3.93;;;0.70;;
2538;SDS011;1280;49.760;9.664;2023-04-01T18:37:33;3.73;;;0.87;;
2538;SDS011;1280;49.760;9.664;2023-04-01T18:40:45;3.23;;;0.70;;
2538;SDS011;1280;49.760;9.664;2023-04-01T18:43:34;3.00;;;0.87;;
2538;SDS011;1280;49.760;9.664;2023-04-01T18:46:18;2.67;;;0.73;;
2538;SDS011;1280;49.760;9.664;2023-04-01T18:49:13;2.90;;;0.90;;
2538;SDS011;1280;49.760;9.664;2023-04-01T18:51:57;2.90;;;0.90;;
2538;SDS011;1280;49.760;9.664;2023-04-01T18:55:18;4.20;;;0.97;;
2538;SDS011;1280;49.760;9.664;2023-04-01T18:58:22;3.20;;;0.90;;
2538;SDS011;1280;49.760;9.664;2023-04-01T19:01:27;4.20;;;0.80;;
2538;SDS011;1280;49.760;9.664;2023-04-01T19:04:10;4.73;;;1.10;;
2538;SDS011;1280;49.760;9.664;2023-04-01T19:14:06;3.70;;;1.10;;
2538;SDS011;1280;49.760;9.664;2023-04-01T19:17:00;3.20;;;1.00;;
2538;SDS011;1280;49.760;9.664;2023-04-01T19:19:56;4.40;;;1.13;;
2538;SDS011;1280;49.760;9.664;2023-04-01T19:23:13;3.07;;;0.97;;
2538;SDS011;1280;49.760;9.664;2023-04-01T19:26:05;3.40;;;0.80;;